sensor_id;sensor_type;location;lat;lon;timestamp;P1;durP1;ratioP1;P2;durP2;ratioP2
18929;SDS011;43305;52.186;5.598;2023-12-07T00:01:05;21.83;;;11.60;;
18929;SDS011;43305;52.186;5.598;2023-12-07T00:03:32;20.55;;;11.20;;
18929;SDS011;43305;52.186;5.598;2023-12-07T00:06:00;20.73;;;11.18;;
18929;SDS011;43305;52.186;5.598;2023-12-07T00:08:27;21.95;;;11.88;;
18929;SDS011;43305;52.186;5.598;2023-12-07T00:10:54;20.00;;;10.23;;
18929;SDS011;43305;52.186;5.598;2023-12-07T00:13:21;22.63;;;11.10;;
18929;SDS011;43305;52.186;5.598;2023-12-07T00:15:48;19.42;;;10.73;;
18929;SDS011;43305;52.186;5.598;2023-12-07T00:18:15;20.50;;;10.85;;
18929;SDS011;43305;52.186;5.598;2023-12-07T00:20:43;18.30;;;10.98;;
18929;SDS011;43305;52.186;5.598;2023-12-07T00:23:10;19.33;;;11.00;;
18929;SDS011;43305;52.186;5.598;2023-12-07T00:25:37;21.38;;;11.48;;
18929;SDS011;43305;52.186;5.598;2023-12-07T00:28:05;20.80;;;10.50;;
18929;SDS011;43305;52.186;5.598;2023-12-07T00:30:32;18.10;;;10.45;;
18929;SDS011;43305;52.186;5.598;2023-12-07T00:33:01;19.45;;;10.15;;
18929;SDS011;43305;52.186;5.598;2023-12-07T00:35:27;19.17;;;10.32;;
18929;SDS011;43305;52.186;5.598;2023-12-07T00:37:56;18.05;;;10.65;;
18929;SDS011;43305;52.186;5.598;2023-12-07T00:40:22;20.15;;;10.73;;
18929;SDS011;43305;52.186;5.598;2023-12-07T00:42:49;19.63;;;10.52;;
18929;SDS011;43305;52.186;5.598;2023-12-07T00:45:16;17.67;;;10.20;;
18929;SDS011;43305;52.186;5.598;2023-12-07T00:47:43;19.25;;;10.20;;
18929;SDS011;43305;52.186;5.598;2023-12-07T00:50:11;19.63;;;10.25;;
18929;SDS011;43305;52.186;5.598;2023-12-07T00:52:39;19.02;;;10.60;;
18929;SDS011;43305;52.186;5.598;2023-12-07T00:55:08;20.25;;;10.52;;
18929;SDS011;43305;52.186;5.598;2023-12-07T00:57:35;18.42;;;10.05;;
18929;SDS011;43305;52.186;5.598;2023-12-07T01:00:01;17.27;;;10.45;;
18929;SDS011;43305;52.186;5.598;2023-12-07T01:02:30;19.75;;;10.77;;
18929;SDS011;43305;52.186;5.598;2023-12-07T01:04:57;19.80;;;10.32;;
18929;SDS011;43305;52.186;5.598;2023-12-07T01:07:24;17.20;;;10.32;;
18929;SDS011;43305;52.186;5.598;2023-12-07T01:09:51;19.38;;;10.63;;
18929;SDS011;43305;52.186;5.598;2023-12-07T01:12:19;21.10;;;11.15;;
18929;SDS011;43305;52.186;5.598;2023-12-07T01:14:46;20.95;;;11.07;;
18929;SDS011;43305;52.186;5.598;2023-12-07T01:17:13;19.33;;;10.40;;
18929;SDS011;43305;52.186;5.598;2023-12-07T01:19:40;19.67;;;10.40;;
18929;SDS011;43305;52.186;5.598;2023-12-07T01:22:07;17.35;;;9.95;;
18929;SDS011;43305;52.186;5.598;2023-12-07T01:24:34;19.92;;;11.10;;
18929;SDS011;43305;52.186;5.598;2023-12-07T01:27:01;17.95;;;9.98;;
18929;SDS011;43305;52.186;5.598;2023-12-07T01:29:29;20.73;;;10.85;;
18929;SDS011;43305;52.186;5.598;2023-12-07T01:31:56;19.73;;;10.55;;
18929;SDS011;43305;52.186;5.598;2023-12-07T01:34:22;20.27;;;10.65;;
18929;SDS011;43305;52.186;5.598;2023-12-07T01:36:49;19.05;;;10.98;;
18929;SDS011;43305;52.186;5.598;2023-12-07T01:39:16;22.50;;;10.73;;
18929;SDS011;43305;52.186;5.598;2023-12-07T01:41:44;21.17;;;10.52;;
18929;SDS011;43305;52.186;5.598;2023-12-07T01:44:11;19.20;;;10.90;;
18929;SDS011;43305;52.186;5.598;2023-12-07T01:46:39;19.50;;;10.95;;
18929;SDS011;43305;52.186;5.598;2023-12-07T01:49:06;20.33;;;10.80;;
18929;SDS011;43305;52.186;5.598;2023-12-07T01:51:35;20.48;;;11.07;;
18929;SDS011;43305;52.186;5.598;2023-12-07T01:54:02;20.08;;;11.00;;
18929;SDS011;43305;52.186;5.598;2023-12-07T01:56:32;22.25;;;11.73;;
18929;SDS011;43305;52.186;5.598;2023-12-07T01:58:59;22.02;;;11.55;;
18929;SDS011;43305;52.186;5.598;2023-12-07T02:01:26;20.17;;;11.15;;
18929;SDS011;43305;52.186;5.598;2023-12-07T02:03:55;19.77;;;10.77;;
18929;SDS011;43305;52.186;5.598;2023-12-07T02:06:21;18.88;;;10.82;;
18929;SDS011;43305;52.186;5.598;2023-12-07T02:08:48;20.48;;;10.65;;
18929;SDS011;43305;52.186;5.598;2023-12-07T02:11:15;21.88;;;11.38;;
18929;SDS011;43305;52.186;5.598;2023-12-07T02:13:43;21.73;;;11.05;;
18929;SDS011;43305;52.186;5.598;2023-12-07T02:16:11;21.10;;;11.68;;
18929;SDS011;43305;52.186;5.598;2023-12-07T02:18:44;24.33;;;11.75;;
18929;SDS011;43305;52.186;5.598;2023-12-07T02:21:21;21.20;;;11.60;;
18929;SDS011;43305;52.186;5.598;2023-12-07T02:24:01;21.00;;;10.90;;
18929;SDS011;43305;52.186;5.598;2023-12-07T02:26:34;21.25;;;11.93;;
18929;SDS011;43305;52.186;5.598;2023-12-07T02:29:02;21.92;;;12.23;;
18929;SDS011;43305;52.186;5.598;2023-12-07T02:31:30;22.35;;;12.75;;
18929;SDS011;43305;52.186;5.598;2023-12-07T02:33:56;23.08;;;12.48;;
18929;SDS011;43305;52.186;5.598;2023-12-07T02:36:24;23.65;;;12.80;;
18929;SDS011;43305;52.186;5.598;2023-12-07T02:38:53;18.38;;;11.43;;
18929;SDS011;43305;52.186;5.598;2023-12-07T02:41:26;24.45;;;11.80;;
18929;SDS011;43305;52.186;5.598;2023-12-07T02:43:55;23.65;;;12.23;;
18929;SDS011;43305;52.186;5.598;2023-12-07T02:46:23;22.20;;;12.30;;
18929;SDS011;43305;52.186;5.598;2023-12-07T02:48:50;23.65;;;11.23;;
18929;SDS011;43305;52.186;5.598;2023-12-07T02:51:17;20.30;;;11.52;;
18929;SDS011;43305;52.186;5.598;2023-12-07T02:53:44;20.52;;;11.68;;
18929;SDS011;43305;52.186;5.598;2023-12-07T02:56:11;21.25;;;11.52;;
18929;SDS011;43305;52.186;5.598;2023-12-07T02:58:37;25.20;;;12.18;;
18929;SDS011;43305;52.186;5.598;2023-12-07T03:01:06;22.73;;;11.65;;
18929;SDS011;43305;52.186;5.598;2023-12-07T03:03:33;21.13;;;11.50;;
18929;SDS011;43305;52.186;5.598;2023-12-07T03:06:00;22.02;;;11.32;;
18929;SDS011;43305;52.186;5.598;2023-12-07T03:08:27;19.92;;;11.07;;
18929;SDS011;43305;52.186;5.598;2023-12-07T03:10:54;20.20;;;11.73;;
18929;SDS011;43305;52.186;5.598;2023-12-07T03:13:21;21.15;;;11.43;;
18929;SDS011;43305;52.186;5.598;2023-12-07T03:15:48;24.23;;;13.30;;
18929;SDS011;43305;52.186;5.598;2023-12-07T03:18:16;23.42;;;12.43;;
18929;SDS011;43305;52.186;5.598;2023-12-07T03:20:43;25.98;;;12.80;;
18929;SDS011;43305;52.186;5.598;2023-12-07T03:23:10;24.00;;;13.18;;
18929;SDS011;43305;52.186;5.598;2023-12-07T03:25:36;22.63;;;13.23;;
18929;SDS011;43305;52.186;5.598;2023-12-07T03:28:06;26.75;;;13.30;;
18929;SDS011;43305;52.186;5.598;2023-12-07T03:30:36;24.92;;;13.70;;
18929;SDS011;43305;52.186;5.598;2023-12-07T03:33:06;24.50;;;12.52;;
18929;SDS011;43305;52.186;5.598;2023-12-07T03:35:34;23.67;;;13.25;;
18929;SDS011;43305;52.186;5.598;2023-12-07T03:38:01;26.48;;;14.40;;
18929;SDS011;43305;52.186;5.598;2023-12-07T03:40:31;24.15;;;13.35;;
18929;SDS011;43305;52.186;5.598;2023-12-07T03:42:59;25.98;;;14.13;;
18929;SDS011;43305;52.186;5.598;2023-12-07T03:45:28;24.27;;;13.32;;
18929;SDS011;43305;52.186;5.598;2023-12-07T03:47:55;23.55;;;13.90;;
18929;SDS011;43305;52.186;5.598;2023-12-07T03:50:22;27.38;;;15.15;;
18929;SDS011;43305;52.186;5.598;2023-12-07T03:52:50;24.50;;;13.98;;
18929;SDS011;43305;52.186;5.598;2023-12-07T03:55:17;25.67;;;14.50;;
18929;SDS011;43305;52.186;5.598;2023-12-07T03:57:44;26.55;;;14.55;;
18929;SDS011;43305;52.186;5.598;2023-12-07T04:00:11;26.48;;;14.95;;
18929;SDS011;43305;52.186;5.598;2023-12-07T04:02:39;26.20;;;13.98;;
18929;SDS011;43305;52.186;5.598;2023-12-07T04:05:09;25.33;;;14.68;;
18929;SDS011;43305;52.186;5.598;2023-12-07T04:07:37;29.15;;;15.63;;
18929;SDS011;43305;52.186;5.598;2023-12-07T04:10:06;27.90;;;15.80;;
18929;SDS011;43305;52.186;5.598;2023-12-07T04:12:36;28.73;;;14.40;;
18929;SDS011;43305;52.186;5.598;2023-12-07T04:15:06;26.58;;;14.65;;
18929;SDS011;43305;52.186;5.598;2023-12-07T04:17:36;25.17;;;14.15;;
18929;SDS011;43305;52.186;5.598;2023-12-07T04:20:06;26.50;;;14.73;;
18929;SDS011;43305;52.186;5.598;2023-12-07T04:22:34;27.80;;;14.07;;
18929;SDS011;43305;52.186;5.598;2023-12-07T04:25:01;26.90;;;13.95;;
18929;SDS011;43305;52.186;5.598;2023-12-07T04:27:32;26.52;;;13.60;;
18929;SDS011;43305;52.186;5.598;2023-12-07T04:30:01;25.33;;;14.15;;
18929;SDS011;43305;52.186;5.598;2023-12-07T04:32:31;25.67;;;14.15;;
18929;SDS011;43305;52.186;5.598;2023-12-07T04:34:58;25.20;;;13.77;;
18929;SDS011;43305;52.186;5.598;2023-12-07T04:37:25;23.77;;;13.35;;
18929;SDS011;43305;52.186;5.598;2023-12-07T04:39:51;23.10;;;12.95;;
18929;SDS011;43305;52.186;5.598;2023-12-07T04:42:18;25.40;;;13.75;;
18929;SDS011;43305;52.186;5.598;2023-12-07T04:44:47;28.13;;;13.90;;
18929;SDS011;43305;52.186;5.598;2023-12-07T04:47:13;25.65;;;13.88;;
18929;SDS011;43305;52.186;5.598;2023-12-07T04:49:40;27.00;;;14.32;;
18929;SDS011;43305;52.186;5.598;2023-12-07T04:52:07;27.75;;;14.32;;
18929;SDS011;43305;52.186;5.598;2023-12-07T04:54:34;30.02;;;14.85;;
18929;SDS011;43305;52.186;5.598;2023-12-07T04:57:01;31.27;;;15.02;;
18929;SDS011;43305;52.186;5.598;2023-12-07T04:59:28;29.10;;;15.15;;
18929;SDS011;43305;52.186;5.598;2023-12-07T05:01:56;51.40;;;17.00;;
18929;SDS011;43305;52.186;5.598;2023-12-07T05:04:23;97.60;;;17.05;;
18929;SDS011;43305;52.186;5.598;2023-12-07T05:06:50;49.67;;;15.68;;
18929;SDS011;43305;52.186;5.598;2023-12-07T05:09:17;70.03;;;16.70;;
18929;SDS011;43305;52.186;5.598;2023-12-07T05:11:43;43.10;;;15.70;;
18929;SDS011;43305;52.186;5.598;2023-12-07T05:14:11;30.95;;;14.82;;
18929;SDS011;43305;52.186;5.598;2023-12-07T05:16:37;33.38;;;16.35;;
18929;SDS011;43305;52.186;5.598;2023-12-07T05:19:06;33.35;;;15.98;;
18929;SDS011;43305;52.186;5.598;2023-12-07T05:21:32;41.25;;;15.65;;
18929;SDS011;43305;52.186;5.598;2023-12-07T05:24:01;27.65;;;14.57;;
18929;SDS011;43305;52.186;5.598;2023-12-07T05:26:29;35.42;;;15.48;;
18929;SDS011;43305;52.186;5.598;2023-12-07T05:28:58;43.65;;;16.58;;
18929;SDS011;43305;52.186;5.598;2023-12-07T05:31:25;55.05;;;15.57;;
18929;SDS011;43305;52.186;5.598;2023-12-07T05:33:52;33.85;;;14.90;;
18929;SDS011;43305;52.186;5.598;2023-12-07T05:36:20;64.43;;;16.67;;
18929;SDS011;43305;52.186;5.598;2023-12-07T05:38:47;28.63;;;14.75;;
18929;SDS011;43305;52.186;5.598;2023-12-07T05:41:14;46.20;;;15.10;;
18929;SDS011;43305;52.186;5.598;2023-12-07T05:43:40;38.00;;;16.05;;
18929;SDS011;43305;52.186;5.598;2023-12-07T05:46:09;58.17;;;16.45;;
18929;SDS011;43305;52.186;5.598;2023-12-07T05:48:36;112.32;;;17.25;;
18929;SDS011;43305;52.186;5.598;2023-12-07T05:51:11;76.32;;;17.73;;
18929;SDS011;43305;52.186;5.598;2023-12-07T05:53:40;69.93;;;17.33;;
18929;SDS011;43305;52.186;5.598;2023-12-07T05:56:07;85.40;;;17.35;;
18929;SDS011;43305;52.186;5.598;2023-12-07T05:58:35;38.95;;;16.25;;
18929;SDS011;43305;52.186;5.598;2023-12-07T06:01:02;101.32;;;17.35;;
18929;SDS011;43305;52.186;5.598;2023-12-07T06:03:32;43.80;;;16.83;;
18929;SDS011;43305;52.186;5.598;2023-12-07T06:06:05;53.83;;;18.25;;
18929;SDS011;43305;52.186;5.598;2023-12-07T06:08:32;52.28;;;17.45;;
18929;SDS011;43305;52.186;5.598;2023-12-07T06:11:02;71.35;;;18.45;;
18929;SDS011;43305;52.186;5.598;2023-12-07T06:13:32;92.03;;;18.38;;
18929;SDS011;43305;52.186;5.598;2023-12-07T06:16:00;51.25;;;18.63;;
18929;SDS011;43305;52.186;5.598;2023-12-07T06:18:35;49.70;;;17.98;;
18929;SDS011;43305;52.186;5.598;2023-12-07T06:21:06;71.63;;;18.98;;
18929;SDS011;43305;52.186;5.598;2023-12-07T06:23:36;47.20;;;18.77;;
18929;SDS011;43305;52.186;5.598;2023-12-07T06:26:07;59.17;;;19.23;;
18929;SDS011;43305;52.186;5.598;2023-12-07T06:28:34;74.00;;;18.88;;
18929;SDS011;43305;52.186;5.598;2023-12-07T06:31:04;40.15;;;17.55;;
18929;SDS011;43305;52.186;5.598;2023-12-07T06:33:32;55.85;;;18.48;;
18929;SDS011;43305;52.186;5.598;2023-12-07T06:36:01;39.80;;;19.67;;
18929;SDS011;43305;52.186;5.598;2023-12-07T06:38:30;63.67;;;19.23;;
18929;SDS011;43305;52.186;5.598;2023-12-07T06:40:57;55.50;;;19.00;;
18929;SDS011;43305;52.186;5.598;2023-12-07T06:43:25;64.47;;;20.48;;
18929;SDS011;43305;52.186;5.598;2023-12-07T06:45:52;61.05;;;20.15;;
18929;SDS011;43305;52.186;5.598;2023-12-07T06:48:19;43.00;;;18.45;;
18929;SDS011;43305;52.186;5.598;2023-12-07T06:50:46;95.63;;;23.20;;
18929;SDS011;43305;52.186;5.598;2023-12-07T06:53:13;37.13;;;19.27;;
18929;SDS011;43305;52.186;5.598;2023-12-07T06:55:43;53.80;;;21.27;;
18929;SDS011;43305;52.186;5.598;2023-12-07T06:58:10;63.05;;;21.30;;
18929;SDS011;43305;52.186;5.598;2023-12-07T07:00:38;76.47;;;22.55;;
18929;SDS011;43305;52.186;5.598;2023-12-07T07:03:05;74.18;;;22.35;;
18929;SDS011;43305;52.186;5.598;2023-12-07T07:05:32;79.22;;;21.52;;
18929;SDS011;43305;52.186;5.598;2023-12-07T07:08:02;96.80;;;23.85;;
18929;SDS011;43305;52.186;5.598;2023-12-07T07:10:31;61.40;;;21.58;;
18929;SDS011;43305;52.186;5.598;2023-12-07T07:13:02;70.15;;;21.55;;
18929;SDS011;43305;52.186;5.598;2023-12-07T07:15:35;88.85;;;22.65;;
18929;SDS011;43305;52.186;5.598;2023-12-07T07:18:06;117.97;;;23.58;;
18929;SDS011;43305;52.186;5.598;2023-12-07T07:20:36;91.50;;;22.17;;
18929;SDS011;43305;52.186;5.598;2023-12-07T07:23:05;106.07;;;22.88;;
18929;SDS011;43305;52.186;5.598;2023-12-07T07:25:36;113.60;;;23.65;;
18929;SDS011;43305;52.186;5.598;2023-12-07T07:28:04;65.05;;;21.67;;
18929;SDS011;43305;52.186;5.598;2023-12-07T07:30:31;183.98;;;25.15;;
18929;SDS011;43305;52.186;5.598;2023-12-07T07:32:57;89.25;;;21.98;;
18929;SDS011;43305;52.186;5.598;2023-12-07T07:35:26;101.45;;;24.08;;
18929;SDS011;43305;52.186;5.598;2023-12-07T07:37:54;97.65;;;22.92;;
18929;SDS011;43305;52.186;5.598;2023-12-07T07:40:20;156.95;;;23.13;;
18929;SDS011;43305;52.186;5.598;2023-12-07T07:42:47;67.82;;;22.48;;
18929;SDS011;43305;52.186;5.598;2023-12-07T07:45:14;129.30;;;22.65;;
18929;SDS011;43305;52.186;5.598;2023-12-07T07:47:41;107.65;;;23.33;;
18929;SDS011;43305;52.186;5.598;2023-12-07T07:50:08;79.70;;;22.67;;
18929;SDS011;43305;52.186;5.598;2023-12-07T07:52:37;163.98;;;24.50;;
18929;SDS011;43305;52.186;5.598;2023-12-07T07:55:05;159.50;;;24.95;;
18929;SDS011;43305;52.186;5.598;2023-12-07T07:57:33;107.93;;;23.15;;
18929;SDS011;43305;52.186;5.598;2023-12-07T08:00:02;102.90;;;23.58;;
18929;SDS011;43305;52.186;5.598;2023-12-07T08:02:36;179.02;;;25.13;;
18929;SDS011;43305;52.186;5.598;2023-12-07T08:05:06;52.05;;;21.45;;
18929;SDS011;43305;52.186;5.598;2023-12-07T08:07:34;81.90;;;22.33;;
18929;SDS011;43305;52.186;5.598;2023-12-07T08:10:02;61.05;;;21.20;;
18929;SDS011;43305;52.186;5.598;2023-12-07T08:12:39;100.70;;;25.33;;
18929;SDS011;43305;52.186;5.598;2023-12-07T08:15:07;68.13;;;23.77;;
18929;SDS011;43305;52.186;5.598;2023-12-07T08:17:36;51.40;;;22.33;;
18929;SDS011;43305;52.186;5.598;2023-12-07T08:20:06;79.20;;;20.90;;
18929;SDS011;43305;52.186;5.598;2023-12-07T08:22:37;130.95;;;22.55;;
18929;SDS011;43305;52.186;5.598;2023-12-07T08:25:08;88.22;;;23.38;;
18929;SDS011;43305;52.186;5.598;2023-12-07T08:27:36;83.32;;;22.25;;
18929;SDS011;43305;52.186;5.598;2023-12-07T08:30:04;65.05;;;22.20;;
18929;SDS011;43305;52.186;5.598;2023-12-07T08:32:34;61.38;;;22.65;;
18929;SDS011;43305;52.186;5.598;2023-12-07T08:35:02;176.75;;;25.75;;
18929;SDS011;43305;52.186;5.598;2023-12-07T08:37:30;98.93;;;24.25;;
18929;SDS011;43305;52.186;5.598;2023-12-07T08:39:57;65.53;;;23.67;;
18929;SDS011;43305;52.186;5.598;2023-12-07T08:42:25;101.18;;;23.67;;
18929;SDS011;43305;52.186;5.598;2023-12-07T08:44:52;85.25;;;24.27;;
18929;SDS011;43305;52.186;5.598;2023-12-07T08:47:21;63.03;;;24.02;;
18929;SDS011;43305;52.186;5.598;2023-12-07T08:49:48;73.40;;;24.67;;
18929;SDS011;43305;52.186;5.598;2023-12-07T08:52:16;81.50;;;23.20;;
18929;SDS011;43305;52.186;5.598;2023-12-07T08:54:43;84.47;;;24.52;;
18929;SDS011;43305;52.186;5.598;2023-12-07T08:57:11;143.90;;;25.83;;
18929;SDS011;43305;52.186;5.598;2023-12-07T08:59:40;126.18;;;24.05;;
18929;SDS011;43305;52.186;5.598;2023-12-07T09:02:06;93.50;;;23.08;;
18929;SDS011;43305;52.186;5.598;2023-12-07T09:04:36;141.35;;;24.35;;
18929;SDS011;43305;52.186;5.598;2023-12-07T09:07:04;66.20;;;23.50;;
18929;SDS011;43305;52.186;5.598;2023-12-07T09:09:31;72.03;;;25.27;;
18929;SDS011;43305;52.186;5.598;2023-12-07T09:11:58;68.82;;;25.02;;
18929;SDS011;43305;52.186;5.598;2023-12-07T09:14:25;115.75;;;27.42;;
18929;SDS011;43305;52.186;5.598;2023-12-07T09:16:54;71.57;;;26.42;;
18929;SDS011;43305;52.186;5.598;2023-12-07T09:19:20;78.38;;;25.35;;
18929;SDS011;43305;52.186;5.598;2023-12-07T09:21:48;83.40;;;23.08;;
18929;SDS011;43305;52.186;5.598;2023-12-07T09:24:15;80.20;;;24.42;;
18929;SDS011;43305;52.186;5.598;2023-12-07T09:26:42;91.20;;;24.45;;
18929;SDS011;43305;52.186;5.598;2023-12-07T09:29:09;69.18;;;23.52;;
18929;SDS011;43305;52.186;5.598;2023-12-07T09:31:35;79.03;;;24.02;;
18929;SDS011;43305;52.186;5.598;2023-12-07T09:34:06;69.97;;;24.45;;
18929;SDS011;43305;52.186;5.598;2023-12-07T09:36:34;79.97;;;23.63;;
18929;SDS011;43305;52.186;5.598;2023-12-07T09:39:01;87.53;;;25.35;;
18929;SDS011;43305;52.186;5.598;2023-12-07T09:41:28;56.75;;;23.20;;
18929;SDS011;43305;52.186;5.598;2023-12-07T09:43:55;52.58;;;23.45;;
18929;SDS011;43305;52.186;5.598;2023-12-07T09:46:22;77.95;;;23.67;;
18929;SDS011;43305;52.186;5.598;2023-12-07T09:48:49;116.50;;;25.70;;
18929;SDS011;43305;52.186;5.598;2023-12-07T09:51:18;112.65;;;26.35;;
18929;SDS011;43305;52.186;5.598;2023-12-07T09:53:45;106.97;;;25.45;;
18929;SDS011;43305;52.186;5.598;2023-12-07T09:56:15;89.53;;;26.30;;
18929;SDS011;43305;52.186;5.598;2023-12-07T09:58:41;68.45;;;25.48;;
18929;SDS011;43305;52.186;5.598;2023-12-07T10:01:08;71.47;;;25.73;;
18929;SDS011;43305;52.186;5.598;2023-12-07T10:03:39;109.68;;;27.88;;
18929;SDS011;43305;52.186;5.598;2023-12-07T10:06:06;85.20;;;26.52;;
18929;SDS011;43305;52.186;5.598;2023-12-07T10:08:34;68.65;;;27.50;;
18929;SDS011;43305;52.186;5.598;2023-12-07T10:11:05;66.05;;;27.13;;
18929;SDS011;43305;52.186;5.598;2023-12-07T10:13:36;90.22;;;28.95;;
18929;SDS011;43305;52.186;5.598;2023-12-07T10:16:07;99.88;;;27.73;;
18929;SDS011;43305;52.186;5.598;2023-12-07T10:18:36;73.50;;;27.35;;
18929;SDS011;43305;52.186;5.598;2023-12-07T10:21:05;85.20;;;27.95;;
18929;SDS011;43305;52.186;5.598;2023-12-07T10:23:38;73.05;;;28.40;;
18929;SDS011;43305;52.186;5.598;2023-12-07T10:26:08;88.28;;;29.40;;
18929;SDS011;43305;52.186;5.598;2023-12-07T10:28:36;90.30;;;28.90;;
18929;SDS011;43305;52.186;5.598;2023-12-07T10:31:07;80.53;;;28.35;;
18929;SDS011;43305;52.186;5.598;2023-12-07T10:33:35;82.68;;;28.08;;
18929;SDS011;43305;52.186;5.598;2023-12-07T10:36:02;75.97;;;26.45;;
18929;SDS011;43305;52.186;5.598;2023-12-07T10:38:33;79.05;;;28.48;;
18929;SDS011;43305;52.186;5.598;2023-12-07T10:41:07;97.03;;;27.80;;
18929;SDS011;43305;52.186;5.598;2023-12-07T10:43:40;72.95;;;25.45;;
18929;SDS011;43305;52.186;5.598;2023-12-07T10:46:09;75.70;;;25.20;;
18929;SDS011;43305;52.186;5.598;2023-12-07T10:48:41;64.95;;;23.67;;
18929;SDS011;43305;52.186;5.598;2023-12-07T10:51:13;79.10;;;23.40;;
18929;SDS011;43305;52.186;5.598;2023-12-07T10:53:46;71.97;;;23.05;;
18929;SDS011;43305;52.186;5.598;2023-12-07T10:56:20;64.80;;;19.58;;
18929;SDS011;43305;52.186;5.598;2023-12-07T10:58:53;66.45;;;17.88;;
18929;SDS011;43305;52.186;5.598;2023-12-07T11:01:22;62.53;;;17.35;;
18929;SDS011;43305;52.186;5.598;2023-12-07T11:03:49;56.42;;;17.38;;
18929;SDS011;43305;52.186;5.598;2023-12-07T11:06:17;52.53;;;17.02;;
18929;SDS011;43305;52.186;5.598;2023-12-07T11:08:47;55.22;;;17.00;;
18929;SDS011;43305;52.186;5.598;2023-12-07T11:11:19;51.05;;;17.02;;
18929;SDS011;43305;52.186;5.598;2023-12-07T11:13:57;46.85;;;16.27;;
18929;SDS011;43305;52.186;5.598;2023-12-07T11:16:29;48.00;;;16.65;;
18929;SDS011;43305;52.186;5.598;2023-12-07T11:18:57;60.95;;;16.80;;
18929;SDS011;43305;52.186;5.598;2023-12-07T11:21:24;42.97;;;16.17;;
18929;SDS011;43305;52.186;5.598;2023-12-07T11:23:53;47.70;;;16.50;;
18929;SDS011;43305;52.186;5.598;2023-12-07T11:26:20;47.42;;;15.05;;
18929;SDS011;43305;52.186;5.598;2023-12-07T11:28:48;45.83;;;16.23;;
18929;SDS011;43305;52.186;5.598;2023-12-07T11:31:15;54.85;;;16.15;;
18929;SDS011;43305;52.186;5.598;2023-12-07T11:33:43;51.88;;;15.93;;
18929;SDS011;43305;52.186;5.598;2023-12-07T11:36:11;59.92;;;17.00;;
18929;SDS011;43305;52.186;5.598;2023-12-07T11:38:39;53.25;;;16.30;;
18929;SDS011;43305;52.186;5.598;2023-12-07T11:41:45;55.38;;;16.25;;
18929;SDS011;43305;52.186;5.598;2023-12-07T11:44:17;57.42;;;17.23;;
18929;SDS011;43305;52.186;5.598;2023-12-07T11:46:44;62.28;;;18.08;;
18929;SDS011;43305;52.186;5.598;2023-12-07T11:49:11;58.83;;;17.65;;
18929;SDS011;43305;52.186;5.598;2023-12-07T11:51:38;51.38;;;16.48;;
18929;SDS011;43305;52.186;5.598;2023-12-07T11:54:05;63.03;;;17.33;;
18929;SDS011;43305;52.186;5.598;2023-12-07T11:56:37;65.78;;;18.67;;
18929;SDS011;43305;52.186;5.598;2023-12-07T11:59:07;59.80;;;18.17;;
18929;SDS011;43305;52.186;5.598;2023-12-07T12:01:37;67.32;;;19.33;;
18929;SDS011;43305;52.186;5.598;2023-12-07T12:04:08;71.07;;;19.20;;
18929;SDS011;43305;52.186;5.598;2023-12-07T12:06:36;74.43;;;20.15;;
18929;SDS011;43305;52.186;5.598;2023-12-07T12:09:03;80.50;;;19.75;;
18929;SDS011;43305;52.186;5.598;2023-12-07T12:11:32;79.35;;;20.48;;
18929;SDS011;43305;52.186;5.598;2023-12-07T12:14:00;66.88;;;19.92;;
18929;SDS011;43305;52.186;5.598;2023-12-07T12:16:27;79.45;;;21.15;;
18929;SDS011;43305;52.186;5.598;2023-12-07T12:18:54;82.95;;;23.20;;
18929;SDS011;43305;52.186;5.598;2023-12-07T12:21:21;99.18;;;29.42;;
18929;SDS011;43305;52.186;5.598;2023-12-07T12:23:48;110.13;;;30.65;;
18929;SDS011;43305;52.186;5.598;2023-12-07T12:26:16;104.82;;;30.90;;
18929;SDS011;43305;52.186;5.598;2023-12-07T12:28:44;97.80;;;28.05;;
18929;SDS011;43305;52.186;5.598;2023-12-07T12:31:12;90.80;;;27.08;;
18929;SDS011;43305;52.186;5.598;2023-12-07T12:33:39;103.65;;;30.25;;
18929;SDS011;43305;52.186;5.598;2023-12-07T12:36:06;92.57;;;27.17;;
18929;SDS011;43305;52.186;5.598;2023-12-07T12:38:38;76.88;;;24.45;;
18929;SDS011;43305;52.186;5.598;2023-12-07T12:41:05;88.80;;;25.27;;
18929;SDS011;43305;52.186;5.598;2023-12-07T12:43:33;91.53;;;27.15;;
18929;SDS011;43305;52.186;5.598;2023-12-07T12:46:01;89.93;;;25.55;;
18929;SDS011;43305;52.186;5.598;2023-12-07T12:48:31;77.70;;;24.05;;
18929;SDS011;43305;52.186;5.598;2023-12-07T12:50:58;84.07;;;24.58;;
18929;SDS011;43305;52.186;5.598;2023-12-07T12:53:33;76.88;;;24.73;;
18929;SDS011;43305;52.186;5.598;2023-12-07T12:56:12;76.68;;;24.17;;
18929;SDS011;43305;52.186;5.598;2023-12-07T12:58:39;73.50;;;22.63;;
18929;SDS011;43305;52.186;5.598;2023-12-07T13:01:06;77.00;;;24.67;;
18929;SDS011;43305;52.186;5.598;2023-12-07T13:03:34;81.28;;;24.13;;
18929;SDS011;43305;52.186;5.598;2023-12-07T13:06:04;81.68;;;23.98;;
18929;SDS011;43305;52.186;5.598;2023-12-07T13:08:32;82.75;;;24.55;;
18929;SDS011;43305;52.186;5.598;2023-12-07T13:10:59;90.72;;;24.70;;
18929;SDS011;43305;52.186;5.598;2023-12-07T13:13:26;88.78;;;27.20;;
18929;SDS011;43305;52.186;5.598;2023-12-07T13:15:52;85.35;;;26.08;;
18929;SDS011;43305;52.186;5.598;2023-12-07T13:18:19;95.20;;;28.13;;
18929;SDS011;43305;52.186;5.598;2023-12-07T13:20:48;93.68;;;31.63;;
18929;SDS011;43305;52.186;5.598;2023-12-07T13:23:14;112.80;;;37.05;;
18929;SDS011;43305;52.186;5.598;2023-12-07T13:25:41;98.60;;;33.53;;
18929;SDS011;43305;52.186;5.598;2023-12-07T13:28:08;93.57;;;28.75;;
18929;SDS011;43305;52.186;5.598;2023-12-07T13:30:38;84.45;;;27.10;;
18929;SDS011;43305;52.186;5.598;2023-12-07T13:33:07;90.70;;;27.13;;
18929;SDS011;43305;52.186;5.598;2023-12-07T13:35:34;85.00;;;27.13;;
18929;SDS011;43305;52.186;5.598;2023-12-07T13:38:06;87.03;;;26.33;;
18929;SDS011;43305;52.186;5.598;2023-12-07T13:40:33;87.82;;;26.92;;
18929;SDS011;43305;52.186;5.598;2023-12-07T13:43:02;87.80;;;25.77;;
18929;SDS011;43305;52.186;5.598;2023-12-07T13:45:29;83.25;;;26.55;;
18929;SDS011;43305;52.186;5.598;2023-12-07T13:47:57;83.95;;;27.20;;
18929;SDS011;43305;52.186;5.598;2023-12-07T13:50:24;89.40;;;27.83;;
18929;SDS011;43305;52.186;5.598;2023-12-07T13:52:52;91.85;;;30.20;;
18929;SDS011;43305;52.186;5.598;2023-12-07T13:55:20;90.07;;;27.42;;
18929;SDS011;43305;52.186;5.598;2023-12-07T13:57:49;86.72;;;26.77;;
18929;SDS011;43305;52.186;5.598;2023-12-07T14:00:18;88.85;;;32.20;;
18929;SDS011;43305;52.186;5.598;2023-12-07T14:02:45;88.15;;;28.55;;
18929;SDS011;43305;52.186;5.598;2023-12-07T14:05:12;85.07;;;29.60;;
18929;SDS011;43305;52.186;5.598;2023-12-07T14:07:38;88.53;;;27.35;;
18929;SDS011;43305;52.186;5.598;2023-12-07T14:10:08;95.53;;;27.88;;
18929;SDS011;43305;52.186;5.598;2023-12-07T14:12:36;78.70;;;25.55;;
18929;SDS011;43305;52.186;5.598;2023-12-07T14:15:04;90.97;;;27.02;;
18929;SDS011;43305;52.186;5.598;2023-12-07T14:17:34;91.35;;;26.95;;
18929;SDS011;43305;52.186;5.598;2023-12-07T14:20:05;87.05;;;27.42;;
18929;SDS011;43305;52.186;5.598;2023-12-07T14:22:36;85.50;;;26.45;;
18929;SDS011;43305;52.186;5.598;2023-12-07T14:25:03;94.10;;;28.27;;
18929;SDS011;43305;52.186;5.598;2023-12-07T14:27:33;102.07;;;30.35;;